Time;durP1;ratioP1;P1;durP2;ratioP2;P2;SDS_P1;SDS_P2;PMS_P1;PMS_P2;Temp;Humidity;BMP_temperature;BMP_pressure;BME280_temperature;BME280_humidity;BME280_pressure;Samples;Min_cycle;Max_cycle;Signal;HPM_P1;HPM_P2
2023/06/23 00:01:09;;;;;;;7.55;6.43;;;17.30;99.90;;;;;;5025289;28;20056;-41
2023/06/23 00:03:35;;;;;;;9.32;7.50;;;17.30;99.90;;;;;;5025957;28;20172;-41
2023/06/23 00:06:03;;;;;;;8.95;6.88;;;17.30;99.90;;;;;;5025291;28;20025;-42
2023/06/23 00:08:30;;;;;;;7.47;6.43;;;17.30;99.90;;;;;;5025525;28;20032;-42
2023/06/23 00:10:56;;;;;;;7.72;5.95;;;17.30;99.90;;;;;;5025214;28;20025;-42
2023/06/23 00:13:26;;;;;;;6.13;5.28;;;17.20;99.90;;;;;;5024397;28;20041;-41
2023/06/23 00:15:53;;;;;;;6.00;5.40;;;17.30;99.90;;;;;;5025574;28;20152;-41
2023/06/23 00:18:20;;;;;;;6.50;5.63;;;17.30;99.90;;;;;;5024362;28;20026;-41
2023/06/23 00:20:48;;;;;;;9.75;7.03;;;17.30;99.90;;;;;;5025272;28;20025;-42
2023/06/23 00:23:14;;;;;;;8.82;7.22;;;17.20;99.90;;;;;;5025527;28;20047;-41
2023/06/23 00:25:40;;;;;;;9.05;7.60;;;17.10;99.90;;;;;;5024691;28;20018;-41
2023/06/23 00:28:06;;;;;;;7.40;6.70;;;17.10;99.90;;;;;;5025010;28;20035;-41
2023/06/23 00:30:34;;;;;;;7.25;6.53;;;17.10;99.90;;;;;;5025168;28;20100;-41
2023/06/23 00:33:00;;;;;;;7.82;7.03;;;17.10;99.90;;;;;;5025064;28;20111;-42
2023/06/23 00:35:25;;;;;;;6.95;6.25;;;17.00;99.90;;;;;;5024527;28;20061;-42
2023/06/23 00:37:54;;;;;;;6.28;5.38;;;17.00;99.90;;;;;;5025023;28;20044;-42
2023/06/23 00:40:22;;;;;;;6.13;5.50;;;17.00;99.90;;;;;;5024583;28;20119;-42
2023/06/23 00:42:54;;;;;;;5.72;5.13;;;17.00;99.90;;;;;;5024466;28;20469;-41
2023/06/23 00:45:20;;;;;;;;;;;17.00;99.90;;;;;;5025410;28;20144;-41
2023/06/23 00:47:46;;;;;;;6.05;4.75;;;17.00;99.90;;;;;;5024260;28;19960;-42
2023/06/23 00:50:23;;;;;;;7.95;7.13;;;17.00;99.90;;;;;;5024798;28;20163;-42
2023/06/23 00:52:53;;;;;;;9.60;6.60;;;17.00;99.90;;;;;;5024585;28;20025;-42
2023/06/23 00:55:22;;;;;;;7.90;6.72;;;16.90;99.90;;;;;;5023968;28;20045;-41
2023/06/23 00:57:49;;;;;;;6.43;5.65;;;16.90;99.90;;;;;;5023878;28;20048;-41
2023/06/23 01:00:19;;;;;;;6.35;5.75;;;16.90;99.90;;;;;;5023633;28;20029;-43
2023/06/23 01:02:48;;;;;;;6.18;5.30;;;16.90;99.90;;;;;;5023913;28;20044;-43
2023/06/23 01:05:25;;;;;;;6.70;6.00;;;16.90;99.90;;;;;;5024328;28;20487;-42
2023/06/23 01:08:05;;;;;;;5.72;5.13;;;16.90;99.90;;;;;;5022682;28;20059;-43
2023/06/23 01:10:35;;;;;;;6.90;6.20;;;16.90;99.90;;;;;;5024188;28;20026;-43
2023/06/23 01:13:26;;;;;;;7.63;6.57;;;16.80;99.90;;;;;;5024660;28;20060;-42
2023/06/23 01:16:21;;;;;;;6.57;5.95;;;16.80;99.90;;;;;;5023679;28;20055;-42
2023/06/23 01:19:18;;;;;;;8.38;5.88;;;16.80;99.90;;;;;;5023585;28;20124;-42
2023/06/23 01:22:19;;;;;;;8.93;6.88;;;16.80;99.90;;;;;;5012554;28;20435;-43
2023/06/23 01:24:44;;;;;;;11.50;7.82;;;16.70;99.90;;;;;;5024281;28;20059;-42
2023/06/23 01:28:00;;;;;;;7.28;6.35;;;16.70;99.90;;;;;;5024116;28;20083;-42
2023/06/23 01:30:32;;;;;;;8.07;6.90;;;16.70;99.90;;;;;;4949643;28;20500;-42
2023/06/23 01:33:13;;;;;;;7.90;7.10;;;16.70;99.90;;;;;;4945838;28;20031;-42
2023/06/23 01:35:44;;;;;;;8.10;7.18;;;16.70;99.90;;;;;;5000092;28;20132;-41
2023/06/23 01:38:30;;;;;;;7.57;6.78;;;16.70;99.90;;;;;;5024481;28;20017;-42
2023/06/23 01:40:58;;;;;;;8.68;7.50;;;16.60;99.90;;;;;;5024747;28;20094;-42
2023/06/23 01:43:29;;;;;;;7.75;6.90;;;16.60;99.90;;;;;;5023011;28;20040;-42
2023/06/23 01:46:16;;;;;;;8.18;7.25;;;16.60;99.90;;;;;;5024671;28;20026;-42
2023/06/23 01:48:48;;;;;;;6.80;6.10;;;16.60;99.90;;;;;;5024491;28;20041;-42
2023/06/23 01:51:17;;;;;;;8.70;6.32;;;16.60;99.90;;;;;;5023658;28;20037;-41
2023/06/23 01:53:46;;;;;;;5.90;5.30;;;16.60;99.90;;;;;;5023969;28;20512;-42
2023/06/23 01:56:16;;;;;;;6.45;5.82;;;16.60;99.90;;;;;;5027392;28;20053;-41
2023/06/23 01:58:43;;;;;;;6.03;5.43;;;16.50;99.90;;;;;;5027533;28;20088;-42
2023/06/23 02:01:10;;;;;;;6.50;5.90;;;16.50;99.90;;;;;;5027237;28;20025;-42
2023/06/23 02:03:38;;;;;;;6.03;5.40;;;16.50;99.90;;;;;;5027831;28;20848;-42
2023/06/23 02:06:04;;;;;;;9.30;6.93;;;16.50;99.90;;;;;;5027558;28;20022;-41
2023/06/23 02:08:32;;;;;;;9.23;8.02;;;16.50;99.90;;;;;;5027547;28;20059;-41
2023/06/23 02:10:58;;;;;;;9.38;8.32;;;16.40;99.90;;;;;;5026881;28;20025;-42
2023/06/23 02:13:26;;;;;;;8.70;7.85;;;16.50;99.90;;;;;;5027330;28;20025;-41
2023/06/23 02:15:54;;;;;;;8.77;7.15;;;16.40;99.90;;;;;;5027291;28;20561;-41
2023/06/23 02:18:21;;;;;;;6.75;5.95;;;16.40;99.90;;;;;;5026401;28;20353;-41
2023/06/23 02:20:48;;;;;;;7.88;7.07;;;16.40;99.90;;;;;;5027349;28;20551;-41
2023/06/23 02:23:15;;;;;;;8.20;6.82;;;16.40;99.90;;;;;;5027139;28;20041;-41
2023/06/23 02:25:41;;;;;;;7.00;5.90;;;16.40;99.90;;;;;;5026453;28;20026;-42
2023/06/23 02:28:08;;;;;;;9.57;7.75;;;16.40;99.90;;;;;;5027585;28;20041;-41
2023/06/23 02:30:34;;;;;;;8.75;7.85;;;16.40;99.90;;;;;;5026585;28;20029;-41
2023/06/23 02:33:00;;;;;;;7.20;6.50;;;16.40;99.90;;;;;;5026643;28;20032;-42
2023/06/23 02:35:27;;;;;;;7.40;6.30;;;16.40;99.90;;;;;;5025998;28;20013;-42
2023/06/23 02:37:56;;;;;;;11.52;8.45;;;16.40;99.90;;;;;;5027891;28;20025;-41
2023/06/23 02:40:29;;;;;;;12.32;9.45;;;16.40;99.90;;;;;;5025827;28;20175;-42
2023/06/23 02:43:22;;;;;;;10.95;9.85;;;16.30;99.90;;;;;;5026744;28;20033;-41
2023/06/23 02:45:53;;;;;;;11.68;10.43;;;16.30;99.90;;;;;;5024102;28;20068;-42
2023/06/23 02:48:26;;;;;;;9.57;8.68;;;16.30;99.90;;;;;;5026746;28;20413;-42
2023/06/23 02:50:55;;;;;;;12.10;10.68;;;16.30;99.90;;;;;;5026212;28;20072;-43
2023/06/23 02:53:28;;;;;;;12.65;11.35;;;16.30;99.90;;;;;;5025705;28;20492;-42
2023/06/23 02:56:05;;;;;;;12.20;10.25;;;16.30;99.90;;;;;;5026293;28;20045;-42
2023/06/23 02:58:31;;;;;;;18.88;11.77;;;16.30;99.90;;;;;;5026100;28;20041;-42
2023/06/23 03:01:02;;;;;;;14.95;13.35;;;16.30;99.90;;;;;;5025772;28;20469;-42
2023/06/23 03:03:29;;;;;;;14.70;12.48;;;16.30;99.90;;;;;;5026395;28;20042;-42
2023/06/23 03:05:57;;;;;;;13.45;11.73;;;16.30;99.90;;;;;;5025416;28;20104;-43
2023/06/23 03:08:24;;;;;;;18.75;15.73;;;16.30;99.90;;;;;;5025148;28;20025;-42
2023/06/23 03:10:50;;;;;;;18.15;16.17;;;16.30;99.90;;;;;;5026168;28;20044;-42
2023/06/23 03:13:16;;;;;;;18.63;15.18;;;16.30;99.90;;;;;;5026196;28;20052;-42
2023/06/23 03:15:42;;;;;;;22.25;18.50;;;16.30;99.90;;;;;;5025764;28;20025;-41
2023/06/23 03:18:17;;;;;;;20.75;16.50;;;16.30;99.90;;;;;;5026227;28;20083;-43
2023/06/23 03:20:54;;;;;;;24.83;21.00;;;16.40;99.90;;;;;;5026875;28;20033;-41
2023/06/23 03:23:24;;;;;;;32.92;24.13;;;16.30;99.90;;;;;;5024609;28;20029;-43
2023/06/23 03:25:50;;;;;;;30.10;22.83;;;16.30;99.90;;;;;;5026539;28;20120;-43
2023/06/23 03:28:26;;;;;;;30.65;24.35;;;16.30;99.90;;;;;;5025262;28;20116;-43
2023/06/23 03:30:55;;;;;;;29.23;22.88;;;16.30;99.90;;;;;;5026679;28;20095;-43
2023/06/23 03:33:47;;;;;;;30.33;23.48;;;16.30;99.90;;;;;;5025171;28;20033;-43
2023/06/23 03:36:19;;;;;;;30.98;23.67;;;16.30;99.90;;;;;;5023154;28;20061;-42
2023/06/23 03:38:52;;;;;;;35.38;26.85;;;16.30;99.90;;;;;;5026240;28;20022;-43
2023/06/23 03:41:17;;;;;;;36.35;27.60;;;16.30;99.90;;;;;;5025643;28;20489;-43
2023/06/23 03:43:50;;;;;;;34.78;25.25;;;16.30;99.90;;;;;;5025477;28;20033;-43
2023/06/23 03:46:46;;;;;;;35.38;27.15;;;16.30;99.90;;;;;;5026233;28;20040;-42
2023/06/23 03:49:14;;;;;;;33.67;25.85;;;16.30;99.90;;;;;;5024288;28;20083;-42
2023/06/23 03:51:43;;;;;;;28.73;22.63;;;16.20;99.90;;;;;;5026212;28;20026;-41
2023/06/23 03:54:10;;;;;;;33.00;26.70;;;16.20;99.90;;;;;;5025097;28;20021;-42
2023/06/23 03:56:43;;;;;;;35.30;28.23;;;16.20;99.90;;;;;;5025252;28;20069;-41
2023/06/23 03:59:11;;;;;;;35.90;28.08;;;16.20;99.90;;;;;;5024962;28;20074;-41
2023/06/23 04:01:38;;;;;;;29.25;22.88;;;16.20;99.90;;;;;;5026049;28;20033;-42
2023/06/23 04:04:05;;;;;;;22.48;19.52;;;16.20;99.90;;;;;;5024618;28;20152;-42
2023/06/23 04:06:32;;;;;;;35.47;26.92;;;16.20;99.90;;;;;;5025167;28;20749;-42
2023/06/23 04:08:59;;;;;;;32.67;25.02;;;16.20;99.90;;;;;;5025294;28;20380;-42
2023/06/23 04:11:27;;;;;;;35.03;26.75;;;16.20;99.90;;;;;;5024706;28;20041;-43
2023/06/23 04:13:56;;;;;;;31.35;25.30;;;16.20;99.90;;;;;;5025317;28;20022;-43
2023/06/23 04:16:23;;;;;;;29.73;23.85;;;16.20;99.90;;;;;;5024851;28;20029;-40
2023/06/23 04:18:53;;;;;;;32.40;24.10;;;16.20;99.90;;;;;;5025086;28;20082;-41
2023/06/23 04:21:21;;;;;;;26.88;21.73;;;16.20;99.90;;;;;;5024684;28;20522;-43
2023/06/23 04:23:47;;;;;;;29.67;24.27;;;16.20;99.90;;;;;;5025803;28;20038;-43
2023/06/23 04:26:14;;;;;;;28.85;23.27;;;16.20;99.90;;;;;;5024679;28;20033;-42
2023/06/23 04:28:43;;;;;;;32.28;26.50;;;16.20;99.90;;;;;;5024491;28;20040;-42
2023/06/23 04:31:10;;;;;;;31.70;24.05;;;16.30;99.90;;;;;;5014215;28;20014;-42
2023/06/23 04:33:37;;;;;;;31.27;24.92;;;16.20;99.90;;;;;;5024314;28;20026;-42
2023/06/23 04:36:17;;;;;;;33.63;26.15;;;16.30;99.90;;;;;;5025307;28;20021;-42
2023/06/23 04:38:50;;;;;;;32.95;26.95;;;16.20;99.90;;;;;;5024369;28;20128;-43
2023/06/23 04:41:23;;;;;;;31.98;26.48;;;16.20;99.90;;;;;;5024503;28;20079;-41
2023/06/23 04:43:53;;;;;;;29.17;23.83;;;16.20;99.90;;;;;;5025373;28;20120;-42
2023/06/23 04:46:28;;;;;;;33.58;26.65;;;16.30;99.90;;;;;;5023651;28;20068;-42
2023/06/23 04:48:59;;;;;;;32.50;24.10;;;16.30;99.90;;;;;;5024560;28;20033;-42
2023/06/23 04:51:29;;;;;;;29.27;24.38;;;16.40;99.90;;;;;;5021147;28;20452;-46
2023/06/23 04:54:01;;;;;;;29.95;22.85;;;16.40;99.90;;;;;;5024160;28;20028;-43
2023/06/23 04:56:32;;;;;;;30.23;23.95;;;16.50;99.90;;;;;;5023367;28;20653;-43
2023/06/23 04:59:06;;;;;;;37.55;28.60;;;16.60;99.90;;;;;;5024780;28;20571;-43
2023/06/23 05:01:37;;;;;;;34.28;25.90;;;16.60;99.90;;;;;;5022747;28;20068;-43
2023/06/23 05:04:05;;;;;;;40.08;28.15;;;16.70;99.90;;;;;;5024524;28;20048;-41
2023/06/23 05:06:33;;;;;;;31.60;24.48;;;16.70;99.90;;;;;;5023584;28;20022;-41
2023/06/23 05:09:04;;;;;;;32.85;24.33;;;16.80;99.90;;;;;;5024094;28;20032;-42
2023/06/23 05:11:31;;;;;;;35.28;25.38;;;16.80;99.90;;;;;;5024037;28;20039;-42
2023/06/23 05:13:58;;;;;;;35.30;26.35;;;16.90;99.90;;;;;;5023549;28;20021;-42
2023/06/23 05:16:25;;;;;;;34.88;23.27;;;16.90;99.90;;;;;;5023055;28;20022;-41
2023/06/23 05:18:54;;;;;;;29.88;23.70;;;16.90;99.90;;;;;;5023975;28;20389;-42
2023/06/23 05:21:22;;;;;;;36.95;26.95;;;17.00;99.90;;;;;;5022749;28;20131;-42
2023/06/23 05:23:53;;;;;;;31.42;24.20;;;17.10;99.90;;;;;;5024255;28;20037;-42
2023/06/23 05:26:20;;;;;;;36.00;25.13;;;17.10;99.90;;;;;;5023571;28;20452;-42
2023/06/23 05:28:48;;;;;;;29.73;21.75;;;17.20;99.90;;;;;;5023113;28;20039;-42
2023/06/23 05:31:16;;;;;;;29.27;20.90;;;17.20;99.90;;;;;;5023849;28;20021;-42
2023/06/23 05:33:44;;;;;;;39.97;29.10;;;17.30;99.90;;;;;;5024356;28;20366;-45
2023/06/23 05:36:11;;;;;;;31.83;24.98;;;17.40;99.90;;;;;;5023259;28;20025;-42
2023/06/23 05:38:39;;;;;;;35.92;26.27;;;17.40;99.90;;;;;;5023650;28;20461;-42
2023/06/23 05:41:04;;;;;;;36.63;26.83;;;17.50;99.90;;;;;;5023828;28;20036;-42
2023/06/23 05:43:30;;;;;;;31.27;24.02;;;17.50;99.90;;;;;;5023287;28;20060;-42
2023/06/23 05:45:57;;;;;;;29.95;23.60;;;17.60;99.90;;;;;;5023937;28;20111;-42
2023/06/23 05:48:41;;;;;;;34.42;24.95;;;17.60;99.90;;;;;;5024070;28;20029;-41
2023/06/23 05:51:11;;;;;;;35.13;25.75;;;17.70;99.90;;;;;;5023823;28;20033;-42
2023/06/23 05:53:39;;;;;;;35.80;26.27;;;17.70;99.90;;;;;;5023885;28;20370;-41
2023/06/23 05:56:13;;;;;;;39.30;28.23;;;17.80;99.90;;;;;;5023026;28;20449;-42
2023/06/23 05:58:41;;;;;;;34.17;24.50;;;17.80;99.90;;;;;;5023592;28;20024;-42
2023/06/23 06:01:12;;;;;;;33.65;23.35;;;17.80;99.90;;;;;;5024014;28;20041;-42
2023/06/23 06:03:41;;;;;;;38.92;27.75;;;17.90;99.90;;;;;;5022590;28;20484;-42
2023/06/23 06:06:08;;;;;;;40.05;27.92;;;18.00;99.90;;;;;;5023539;28;20041;-42
2023/06/23 06:08:40;;;;;;;34.33;24.80;;;18.10;99.90;;;;;;5023603;28;20041;-42
2023/06/23 06:11:07;;;;;;;34.42;25.38;;;18.10;99.90;;;;;;5023251;28;20089;-42
2023/06/23 06:13:39;;;;;;;33.60;25.33;;;18.20;99.90;;;;;;5023487;28;20445;-42
2023/06/23 06:16:07;;;;;;;28.55;23.25;;;18.30;99.90;;;;;;5023756;28;20061;-43
2023/06/23 06:18:35;;;;;;;29.38;22.48;;;18.40;99.90;;;;;;5022597;28;20025;-43
2023/06/23 06:21:04;;;;;;;29.98;21.58;;;18.40;99.90;;;;;;5023500;28;20029;-42
2023/06/23 06:23:31;;;;;;;27.75;21.35;;;18.50;99.90;;;;;;5023389;28;20124;-42
2023/06/23 06:25:58;;;;;;;31.77;24.20;;;18.60;99.90;;;;;;5022939;28;20580;-42
2023/06/23 06:28:26;;;;;;;24.67;19.55;;;18.70;99.90;;;;;;5022803;28;20075;-42
2023/06/23 06:30:54;;;;;;;25.13;20.02;;;18.70;99.90;;;;;;5023932;28;20037;-42
2023/06/23 06:33:21;;;;;;;32.30;24.17;;;18.80;99.90;;;;;;5022403;28;20480;-42
2023/06/23 06:35:48;;;;;;;28.65;20.70;;;19.00;99.90;;;;;;5023481;28;20056;-41
2023/06/23 06:38:15;;;;;;;29.42;21.58;;;19.00;99.90;;;;;;5022515;28;20384;-42
2023/06/23 06:40:44;;;;;;;29.08;22.17;;;19.10;99.90;;;;;;5025063;28;20041;-42
2023/06/23 06:43:10;;;;;;;28.40;22.45;;;19.10;99.90;;;;;;5026565;28;20063;-44
2023/06/23 06:45:35;;;;;;;27.67;21.38;;;19.10;99.90;;;;;;5026315;28;20802;-41
2023/06/23 06:48:05;;;;;;;22.40;18.92;;;19.20;99.90;;;;;;5026822;28;20033;-41
2023/06/23 06:50:37;;;;;;;31.42;23.83;;;19.20;99.90;;;;;;5026953;28;20173;-41
2023/06/23 06:53:03;;;;;;;27.92;21.08;;;19.30;99.90;;;;;;5026432;28;20041;-41
2023/06/23 06:55:32;;;;;;;27.95;21.30;;;19.30;99.90;;;;;;5026090;28;20095;-42
2023/06/23 06:57:58;;;;;;;23.73;19.63;;;19.30;99.90;;;;;;5027063;28;20025;-42
2023/06/23 07:00:25;;;;;;;23.75;18.17;;;19.30;99.90;;;;;;5025716;28;20017;-41
2023/06/23 07:02:52;;;;;;;23.45;17.80;;;19.30;99.90;;;;;;5027527;28;20048;-41
2023/06/23 07:05:18;;;;;;;22.65;19.52;;;19.40;99.90;;;;;;5026349;28;20064;-41
2023/06/23 07:07:50;;;;;;;25.67;20.95;;;19.40;99.90;;;;;;5026672;28;20053;-42
2023/06/23 07:10:22;;;;;;;20.10;17.38;;;19.40;99.90;;;;;;5024934;28;20092;-42
2023/06/23 07:12:48;;;;;;;23.42;19.50;;;19.40;99.90;;;;;;5006217;28;20026;-41
2023/06/23 07:15:14;;;;;;;23.08;18.92;;;19.40;99.90;;;;;;5018902;28;20084;-42
2023/06/23 07:17:40;;;;;;;20.77;16.38;;;19.40;99.90;;;;;;5026441;28;20029;-42
2023/06/23 07:20:06;;;;;;;20.77;16.65;;;19.40;99.90;;;;;;5025984;28;20029;-42
2023/06/23 07:22:33;;;;;;;19.05;16.92;;;19.40;99.90;;;;;;5025965;28;20112;-42
2023/06/23 07:24:58;;;;;;;16.83;13.57;;;19.40;99.90;;;;;;5026259;28;20112;-42
2023/06/23 07:27:25;;;;;;;14.82;11.60;;;19.40;99.90;;;;;;5024646;28;20105;-42
2023/06/23 07:29:51;;;;;;;16.05;14.07;;;19.50;99.90;;;;;;5025581;28;20030;-42
2023/06/23 07:32:17;;;;;;;15.45;12.75;;;19.50;99.90;;;;;;5025965;28;20028;-42
2023/06/23 07:34:42;;;;;;;15.93;13.27;;;19.60;99.90;;;;;;5025097;28;20629;-42
2023/06/23 07:37:10;;;;;;;18.38;14.50;;;19.70;99.90;;;;;;5026095;28;20073;-42
2023/06/23 07:39:37;;;;;;;14.77;13.07;;;19.70;99.90;;;;;;5025611;28;20485;-42
2023/06/23 07:42:03;;;;;;;12.40;10.32;;;19.70;99.90;;;;;;5025185;28;20029;-42
2023/06/23 07:44:31;;;;;;;9.73;8.73;;;19.70;99.90;;;;;;5025992;28;20041;-42
2023/06/23 07:46:58;;;;;;;14.95;13.15;;;19.80;99.90;;;;;;5025509;28;20025;-42
2023/06/23 07:49:23;;;;;;;13.90;12.40;;;19.80;99.90;;;;;;5024493;28;20025;-42
2023/06/23 07:51:49;;;;;;;15.35;12.93;;;19.80;99.90;;;;;;5025445;28;20476;-43
2023/06/23 07:54:14;;;;;;;12.10;10.35;;;19.90;99.90;;;;;;5025410;28;20179;-42
2023/06/23 07:56:40;;;;;;;9.98;8.90;;;19.90;99.90;;;;;;5024393;28;20461;-42
2023/06/23 07:59:05;;;;;;;15.23;11.77;;;19.90;99.90;;;;;;5025870;28;20072;-43
2023/06/23 08:01:34;;;;;;;13.15;11.07;;;20.00;99.90;;;;;;5025030;28;20033;-43
2023/06/23 08:04:03;;;;;;;10.85;9.35;;;20.00;99.90;;;;;;5025380;28;20045;-42
2023/06/23 08:06:28;;;;;;;9.23;8.10;;;20.00;99.90;;;;;;5026013;28;20377;-42
2023/06/23 08:08:54;;;;;;;11.80;9.25;;;20.00;99.90;;;;;;5025591;28;20030;-42
2023/06/23 08:11:19;;;;;;;8.35;7.25;;;20.00;99.90;;;;;;5022986;28;20061;-42
2023/06/23 08:13:45;;;;;;;8.00;7.20;;;20.10;99.90;;;;;;5025503;28;20037;-42
2023/06/23 08:16:11;;;;;;;10.60;8.68;;;20.10;99.90;;;;;;5025008;28;21110;-42
2023/06/23 08:18:39;;;;;;;11.60;8.80;;;20.20;99.90;;;;;;5024017;28;20481;-42
2023/06/23 08:21:05;;;;;;;10.75;8.70;;;20.20;99.90;;;;;;5024971;28;20014;-42
2023/06/23 08:23:30;;;;;;;8.35;7.38;;;20.30;99.90;;;;;;5024581;28;20040;-42
2023/06/23 08:25:56;;;;;;;8.13;7.32;;;20.40;99.90;;;;;;5025252;28;20056;-42
2023/06/23 08:28:21;;;;;;;9.98;8.75;;;20.40;99.90;;;;;;5024281;28;20116;-43
2023/06/23 08:30:47;;;;;;;7.45;6.75;;;20.40;99.90;;;;;;5024029;28;20072;-41
2023/06/23 08:33:13;;;;;;;8.77;6.85;;;20.50;99.90;;;;;;5024398;28;20096;-42
2023/06/23 08:35:38;;;;;;;6.78;6.10;;;20.50;99.90;;;;;;5024689;28;20025;-42
2023/06/23 08:38:05;;;;;;;7.00;5.35;;;20.60;99.90;;;;;;5024436;28;20044;-42
2023/06/23 08:40:30;;;;;;;9.00;7.40;;;20.60;99.90;;;;;;5024891;28;20017;-41
2023/06/23 08:42:56;;;;;;;10.73;6.85;;;20.70;99.90;;;;;;5024978;28;20110;-42
2023/06/23 08:45:24;;;;;;;6.35;5.68;;;20.60;99.90;;;;;;5022795;28;20131;-42
2023/06/23 08:47:56;;;;;;;9.02;7.45;;;20.70;99.90;;;;;;5024650;28;20104;-43
2023/06/23 08:50:22;;;;;;;8.93;6.63;;;20.70;99.90;;;;;;5024291;28;20076;-43
2023/06/23 08:52:50;;;;;;;6.50;5.88;;;20.80;99.90;;;;;;5024010;28;20112;-43
2023/06/23 08:55:16;;;;;;;6.90;5.95;;;20.80;99.90;;;;;;5024265;28;20061;-42
2023/06/23 08:57:44;;;;;;;7.30;5.60;;;20.90;99.90;;;;;;5025371;28;20043;-41
2023/06/23 09:00:12;;;;;;;5.88;4.88;;;20.90;99.90;;;;;;5024096;28;20036;-42
2023/06/23 09:02:38;;;;;;;6.55;5.68;;;21.00;99.90;;;;;;5024265;28;20025;-42
2023/06/23 09:05:04;;;;;;;5.95;5.25;;;21.00;99.90;;;;;;5024007;28;20036;-41
2023/06/23 09:07:32;;;;;;;4.45;4.03;;;21.10;99.90;;;;;;5023662;28;20021;-41
2023/06/23 09:09:57;;;;;;;6.45;5.50;;;21.10;99.90;;;;;;5020747;28;20025;-41
2023/06/23 09:12:24;;;;;;;5.97;5.20;;;21.20;99.90;;;;;;5023903;28;20029;-42
2023/06/23 09:14:55;;;;;;;4.97;4.47;;;21.20;99.90;;;;;;5023655;28;20534;-41
2023/06/23 09:17:21;;;;;;;5.88;5.00;;;21.30;99.90;;;;;;5024297;28;20025;-41
2023/06/23 09:19:50;;;;;;;5.75;4.78;;;21.30;99.90;;;;;;5023676;28;20026;-42
2023/06/23 09:22:21;;;;;;;4.97;4.43;;;21.30;99.90;;;;;;5024171;28;20041;-41
2023/06/23 09:24:48;;;;;;;4.60;4.03;;;21.40;99.90;;;;;;5024326;28;20087;-42
2023/06/23 09:27:14;;;;;;;4.88;4.38;;;21.50;99.90;;;;;;5023308;28;20822;-42
2023/06/23 09:29:40;;;;;;;4.22;3.83;;;21.50;99.90;;;;;;5024125;28;20076;-42
2023/06/23 09:32:09;;;;;;;4.07;3.50;;;21.60;99.90;;;;;;5023704;28;20029;-42
2023/06/23 09:34:36;;;;;;;4.30;3.80;;;21.70;99.90;;;;;;5023031;28;20017;-41
2023/06/23 09:37:19;;;;;;;5.78;5.00;;;21.80;99.90;;;;;;5024845;28;20133;-41
2023/06/23 09:39:49;;;;;;;5.75;5.22;;;21.90;99.90;;;;;;5024217;28;20064;-42
2023/06/23 09:42:15;;;;;;;6.07;5.47;;;21.90;99.90;;;;;;5022418;28;20535;-42
2023/06/23 09:44:46;;;;;;;6.18;5.47;;;22.00;99.90;;;;;;5023554;28;20519;-42
2023/06/23 09:47:17;;;;;;;6.05;4.95;;;22.00;99.90;;;;;;5023190;28;20490;-44
2023/06/23 09:49:48;;;;;;;6.38;5.75;;;22.10;99.90;;;;;;5023334;28;20025;-42
2023/06/23 09:52:24;;;;;;;4.88;4.35;;;22.10;99.90;;;;;;5023578;28;20057;-42
2023/06/23 09:54:49;;;;;;;8.15;6.00;;;22.20;99.90;;;;;;5023863;28;20037;-42
2023/06/23 09:57:17;;;;;;;5.57;5.03;;;22.30;99.90;;;;;;5022991;28;20038;-43
2023/06/23 09:59:45;;;;;;;6.30;5.68;;;22.40;99.90;;;;;;5024094;28;20022;-43
2023/06/23 10:02:21;;;;;;;6.90;5.22;;;22.50;99.90;;;;;;5023440;28;20096;-42
2023/06/23 10:04:51;;;;;;;4.95;4.40;;;22.50;99.90;;;;;;5023792;28;20452;-43
2023/06/23 10:07:23;;;;;;;5.00;4.50;;;22.60;99.90;;;;;;5023156;28;20531;-42
2023/06/23 10:09:53;;;;;;;3.90;3.50;;;22.60;99.90;;;;;;5023548;28;20024;-42
2023/06/23 10:12:26;;;;;;;6.63;4.93;;;22.60;99.90;;;;;;5023167;28;20527;-43
2023/06/23 10:14:54;;;;;;;4.93;4.43;;;22.70;99.90;;;;;;5024591;28;20032;-42
2023/06/23 10:17:19;;;;;;;4.05;3.67;;;22.70;99.90;;;;;;5026354;28;20473;-43
2023/06/23 10:19:56;;;;;;;4.10;3.70;;;22.80;99.90;;;;;;5028248;28;20028;-43
2023/06/23 10:22:22;;;;;;;4.45;3.65;;;22.90;99.90;;;;;;5027065;28;20022;-42
2023/06/23 10:24:52;;;;;;;3.65;3.28;;;22.80;99.90;;;;;;5026598;28;20098;-42
2023/06/23 10:27:26;;;;;;;4.45;3.80;;;22.90;99.90;;;;;;5026362;28;20022;-42
2023/06/23 10:29:57;;;;;;;3.83;3.38;;;23.00;99.90;;;;;;5027615;28;20079;-42
2023/06/23 10:32:28;;;;;;;5.93;3.58;;;22.90;99.90;;;;;;5025648;28;20465;-43
2023/06/23 10:34:59;;;;;;;3.53;3.20;;;23.00;99.90;;;;;;5027536;28;20381;-43
2023/06/23 10:37:27;;;;;;;4.20;3.13;;;23.00;99.90;;;;;;5025837;28;20571;-42
2023/06/23 10:40:00;;;;;;;3.95;2.90;;;23.00;99.90;;;;;;5026596;28;20622;-42
2023/06/23 10:42:28;;;;;;;3.63;2.83;;;23.00;99.90;;;;;;5026356;28;20030;-42
2023/06/23 10:44:54;;;;;;;3.72;3.13;;;23.10;99.90;;;;;;5026992;28;20120;-43
2023/06/23 10:47:21;;;;;;;3.50;2.80;;;23.10;99.90;;;;;;5026614;28;20118;-43
2023/06/23 10:49:47;;;;;;;2.92;2.38;;;23.20;99.90;;;;;;5027065;28;20041;-43
2023/06/23 10:52:14;;;;;;;4.22;3.03;;;23.20;99.90;;;;;;5026006;28;20520;-42
2023/06/23 10:54:40;;;;;;;3.53;3.20;;;23.30;99.90;;;;;;5026606;28;20161;-42
2023/06/23 10:57:10;;;;;;;3.42;3.10;;;23.20;99.20;;;;;;5026638;28;20326;-43
2023/06/23 10:59:44;;;;;;;3.05;2.83;;;23.30;98.90;;;;;;5025449;28;20496;-43
2023/06/23 11:02:12;;;;;;;3.28;2.60;;;23.30;98.40;;;;;;5026165;28;20759;-42
2023/06/23 11:04:49;;;;;;;3.05;2.63;;;23.40;98.90;;;;;;5026298;28;20033;-42
2023/06/23 11:07:14;;;;;;;3.13;2.83;;;23.30;98.20;;;;;;5026001;28;20033;-42
2023/06/23 11:10:02;;;;;;;3.55;2.90;;;23.40;98.40;;;;;;5027135;28;20393;-42
2023/06/23 11:12:32;;;;;;;2.90;2.40;;;23.40;97.80;;;;;;5025835;28;20111;-42
2023/06/23 11:15:21;;;;;;;2.58;2.38;;;23.40;98.10;;;;;;5025931;28;20342;-43
2023/06/23 11:17:48;;;;;;;3.92;3.03;;;23.40;97.60;;;;;;5026599;28;20029;-42
2023/06/23 11:20:24;;;;;;;3.45;2.58;;;23.50;97.00;;;;;;5025490;28;20017;-42
2023/06/23 11:22:54;;;;;;;2.70;2.50;;;23.60;97.30;;;;;;5026035;28;20073;-42
2023/06/23 11:25:33;;;;;;;3.85;2.60;;;23.70;96.80;;;;;;5025868;28;20025;-42
2023/06/23 11:28:44;;;;;;;2.65;2.15;;;23.70;96.00;;;;;;5024533;28;20017;-43
2023/06/23 11:31:13;;;;;;;2.60;2.40;;;23.80;96.30;;;;;;5026164;28;20033;-43
2023/06/23 11:33:43;;;;;;;4.13;2.65;;;23.90;92.80;;;;;;5025685;28;20052;-42
2023/06/23 11:36:15;;;;;;;3.67;2.53;;;23.90;92.30;;;;;;5026116;28;20034;-42
2023/06/23 11:38:43;;;;;;;3.22;2.40;;;23.90;91.50;;;;;;5025452;28;20049;-43
2023/06/23 11:41:09;;;;;;;2.30;2.10;;;23.90;92.40;;;;;;5024945;28;20044;-42
2023/06/23 11:43:42;;;;;;;2.13;1.92;;;24.00;92.80;;;;;;5025737;28;20362;-42
2023/06/23 11:46:12;;;;;;;2.60;2.05;;;24.00;93.30;;;;;;5025739;28;20017;-42
2023/06/23 11:48:42;;;;;;;2.58;2.38;;;24.10;93.50;;;;;;5024917;28;20029;-43
2023/06/23 11:51:12;;;;;;;2.38;2.15;;;24.10;92.50;;;;;;5025893;28;20029;-43
2023/06/23 11:53:41;;;;;;;3.13;2.30;;;24.20;92.60;;;;;;5025787;28;20025;-43
2023/06/23 11:56:07;;;;;;;2.88;2.30;;;24.20;91.00;;;;;;5025334;28;20146;-42
2023/06/23 11:58:36;;;;;;;2.55;2.20;;;24.20;92.00;;;;;;5025650;28;20028;-42
2023/06/23 12:01:04;;;;;;;2.70;2.40;;;24.30;92.00;;;;;;5026114;28;20033;-42
2023/06/23 12:03:30;;;;;;;2.67;2.13;;;24.30;92.40;;;;;;5024414;28;20484;-42
2023/06/23 12:05:56;;;;;;;4.95;2.33;;;24.40;92.50;;;;;;5025316;28;20021;-42
2023/06/23 12:08:27;;;;;;;3.70;2.70;;;24.40;91.80;;;;;;5025338;28;20481;-42
2023/06/23 12:10:53;;;;;;;3.33;2.50;;;24.50;91.90;;;;;;5024512;28;20021;-42
2023/06/23 12:13:20;;;;;;;2.92;2.42;;;24.50;90.70;;;;;;5025123;28;20056;-42
2023/06/23 12:15:46;;;;;;;2.95;2.30;;;24.50;90.90;;;;;;5022802;28;20041;-43
2023/06/23 12:18:12;;;;;;;4.05;2.60;;;24.60;90.50;;;;;;5024979;28;20028;-43
2023/06/23 12:20:40;;;;;;;2.75;2.55;;;24.70;90.80;;;;;;5024377;28;20017;-43
2023/06/23 12:23:08;;;;;;;4.13;2.20;;;24.70;88.40;;;;;;5024353;28;20079;-43
2023/06/23 12:25:52;;;;;;;3.83;2.50;;;24.80;90.00;;;;;;5024493;28;20030;-43
2023/06/23 12:28:19;;;;;;;2.70;2.50;;;24.90;87.60;;;;;;5005421;28;20025;-43
2023/06/23 12:30:48;;;;;;;3.10;2.22;;;24.90;87.10;;;;;;5018226;28;20033;-43
2023/06/23 12:33:16;;;;;;;3.60;2.30;;;24.90;88.70;;;;;;5024762;28;20068;-43
2023/06/23 12:36:03;;;;;;;3.47;2.60;;;25.00;89.90;;;;;;5025088;28;20551;-43
2023/06/23 12:38:36;;;;;;;2.80;2.38;;;25.20;90.20;;;;;;5023558;28;20034;-42
2023/06/23 12:41:19;;;;;;;3.33;2.70;;;25.30;90.50;;;;;;5024443;28;20501;-43
2023/06/23 12:43:47;;;;;;;3.08;2.50;;;25.40;89.80;;;;;;5024287;28;20068;-43
2023/06/23 12:46:15;;;;;;;2.80;2.20;;;25.40;90.10;;;;;;5024907;28;20022;-43
2023/06/23 12:48:41;;;;;;;3.92;2.22;;;25.50;90.60;;;;;;5024264;28;20056;-43
2023/06/23 12:51:08;;;;;;;3.08;2.60;;;25.50;90.80;;;;;;5023777;28;20279;-44